createdAt,value
2023-04-26T00:00:11.869Z,3.25
2023-04-26T00:02:38.600Z,6.35
2023-04-26T00:05:06.497Z,6.28
2023-04-26T00:07:33.983Z,9.70
2023-04-26T00:10:00.537Z,5.85
2023-04-26T00:12:27.807Z,6.72
2023-04-26T00:14:54.388Z,5.00
2023-04-26T00:17:21.103Z,7.50
2023-04-26T00:19:47.645Z,7.40
2023-04-26T00:22:15.325Z,7.63
2023-04-26T00:24:41.946Z,8.13
2023-04-26T00:27:10.387Z,5.88
2023-04-26T00:29:37.593Z,5.43
2023-04-26T00:32:04.310Z,5.10
2023-04-26T00:34:37.432Z,3.63
2023-04-26T00:37:05.298Z,5.18
2023-04-26T00:39:31.910Z,7.63
2023-04-26T00:41:58.500Z,3.67
2023-04-26T00:44:25.078Z,8.10
2023-04-26T00:46:53.808Z,5.35
2023-04-26T00:49:23.059Z,7.90
2023-04-26T00:51:51.820Z,6.00
2023-04-26T00:54:21.151Z,6.28
2023-04-26T00:56:48.304Z,4.47
2023-04-26T00:59:14.850Z,4.03
2023-04-26T01:01:42.665Z,4.38
2023-04-26T01:04:09.437Z,6.80
2023-04-26T01:06:38.498Z,4.43
2023-04-26T01:09:11.032Z,4.50
2023-04-26T01:11:38.442Z,5.75
2023-04-26T01:14:05.642Z,4.47
2023-04-26T01:16:33.125Z,4.53
2023-04-26T01:19:13.683Z,5.78
2023-04-26T01:21:41.107Z,4.83
2023-04-26T01:24:09.958Z,5.25
2023-04-26T01:26:37.298Z,3.30
2023-04-26T01:29:14.168Z,6.03
2023-04-26T01:31:40.678Z,4.30
2023-04-26T01:34:07.194Z,6.10
2023-04-26T01:36:33.774Z,6.47
2023-04-26T01:39:00.468Z,4.38
2023-04-26T01:41:27.075Z,5.00
2023-04-26T01:43:53.672Z,4.55
2023-04-26T01:46:20.167Z,2.40
2023-04-26T01:48:47.329Z,3.85
2023-04-26T01:51:14.145Z,5.38
2023-04-26T01:53:40.589Z,6.97
2023-04-26T01:56:07.335Z,2.38
2023-04-26T01:58:33.849Z,3.60
2023-04-26T02:01:07.985Z,3.90
2023-04-26T02:03:35.777Z,7.07
2023-04-26T02:06:03.165Z,6.18
2023-04-26T02:08:30.001Z,2.58
2023-04-26T02:10:56.898Z,3.70
2023-04-26T02:13:23.470Z,2.00
2023-04-26T02:15:51.404Z,4.55
2023-04-26T02:18:21.827Z,3.78
2023-04-26T02:20:48.623Z,10.05
2023-04-26T02:23:15.653Z,3.27
2023-04-26T02:25:42.498Z,3.63
2023-04-26T02:28:09.032Z,5.65
2023-04-26T02:30:35.643Z,4.15
2023-04-26T02:33:02.578Z,6.10
2023-04-26T02:35:29.131Z,9.40
2023-04-26T02:37:55.911Z,4.60
2023-04-26T02:40:22.556Z,4.07
2023-04-26T02:42:49.327Z,6.60
2023-04-26T02:45:15.963Z,4.70
2023-04-26T02:47:42.594Z,5.90
2023-04-26T02:50:10.376Z,5.45
2023-04-26T02:52:37.161Z,7.07
2023-04-26T02:55:04.631Z,4.20
2023-04-26T02:57:31.967Z,7.35
2023-04-26T02:59:58.931Z,6.07
2023-04-26T03:02:25.723Z,4.45
2023-04-26T03:04:52.637Z,3.78
2023-04-26T03:07:19.391Z,5.15
2023-04-26T03:09:46.022Z,3.42
2023-04-26T03:12:12.544Z,6.37
2023-04-26T03:14:39.339Z,4.75
2023-04-26T03:17:06.250Z,2.88
2023-04-26T03:19:32.873Z,7.53
2023-04-26T03:21:59.350Z,4.53
2023-04-26T03:24:26.197Z,4.37
2023-04-26T03:26:53.914Z,4.38
2023-04-26T03:29:20.627Z,3.95
2023-04-26T03:31:47.180Z,4.50
2023-04-26T03:34:13.712Z,2.80
2023-04-26T03:36:40.280Z,3.57
2023-04-26T03:39:06.836Z,7.35
2023-04-26T03:41:33.792Z,3.97
2023-04-26T03:44:00.414Z,2.72
2023-04-26T03:46:27.016Z,2.60
2023-04-26T03:48:53.724Z,3.70
2023-04-26T03:51:20.983Z,3.63
2023-04-26T03:53:48.713Z,4.85
2023-04-26T03:56:15.460Z,2.58
2023-04-26T03:58:43.210Z,8.90
2023-04-26T04:01:09.818Z,4.73
2023-04-26T04:03:37.898Z,3.72
2023-04-26T04:06:06.742Z,4.43
2023-04-26T04:08:33.922Z,4.30
2023-04-26T04:11:01.549Z,5.15
2023-04-26T04:13:28.136Z,3.47
2023-04-26T04:15:54.743Z,4.47
2023-04-26T04:18:21.300Z,9.15
2023-04-26T04:20:47.806Z,6.75
2023-04-26T04:23:14.292Z,11.55
2023-04-26T04:25:41.113Z,3.77
2023-04-26T04:28:08.567Z,6.00
2023-04-26T04:30:35.587Z,5.32
2023-04-26T04:33:02.809Z,4.50
2023-04-26T04:35:33.496Z,8.45
2023-04-26T04:38:00.229Z,9.93
2023-04-26T04:40:27.535Z,4.90
2023-04-26T04:42:54.887Z,4.43
2023-04-26T04:45:21.664Z,6.47
2023-04-26T04:47:48.468Z,3.60
2023-04-26T04:50:15.108Z,11.67
2023-04-26T04:52:42.524Z,4.68
2023-04-26T04:55:09.899Z,4.47
2023-04-26T04:57:36.499Z,3.97
2023-04-26T05:00:10.304Z,4.93
2023-04-26T05:02:37.515Z,6.20
2023-04-26T05:05:05.265Z,5.22
2023-04-26T05:07:32.657Z,5.57
2023-04-26T05:09:59.892Z,9.55
2023-04-26T05:12:27.046Z,6.13
2023-04-26T05:14:53.510Z,5.57
2023-04-26T05:17:20.386Z,5.32
2023-04-26T05:19:47.289Z,5.60
2023-04-26T05:22:18.601Z,5.68
2023-04-26T05:24:47.428Z,7.68
2023-04-26T05:27:14.616Z,6.00
2023-04-26T05:29:41.760Z,3.35
2023-04-26T05:32:08.598Z,4.85
2023-04-26T05:34:36.692Z,3.60
2023-04-26T05:37:03.557Z,6.07
2023-04-26T05:39:30.713Z,5.60
2023-04-26T05:41:57.436Z,6.28
2023-04-26T05:44:23.901Z,7.50
2023-04-26T05:46:50.625Z,10.10
2023-04-26T05:49:17.154Z,3.88
2023-04-26T05:51:43.621Z,3.17
2023-04-26T05:54:10.179Z,6.30
2023-04-26T05:56:36.765Z,7.13
2023-04-26T05:59:03.257Z,5.97
2023-04-26T06:01:29.739Z,3.95
2023-04-26T06:03:59.841Z,5.63
2023-04-26T06:06:27.628Z,6.30
2023-04-26T06:08:55.575Z,4.60
2023-04-26T06:11:24.521Z,10.02
2023-04-26T06:13:51.561Z,9.02
2023-04-26T06:16:18.817Z,7.20
2023-04-26T06:18:45.425Z,7.22
2023-04-26T06:21:11.909Z,5.75
2023-04-26T06:23:38.407Z,6.50
2023-04-26T06:26:04.942Z,6.80
2023-04-26T06:28:31.672Z,6.93
2023-04-26T06:30:58.273Z,5.55
2023-04-26T06:33:24.854Z,6.95
2023-04-26T06:35:52.417Z,9.85
2023-04-26T06:38:19.042Z,8.88
2023-04-26T06:40:45.589Z,6.93
2023-04-26T06:43:12.130Z,5.97
2023-04-26T06:45:39.669Z,6.10
2023-04-26T06:48:07.224Z,4.20
2023-04-26T06:50:33.876Z,6.90
2023-04-26T06:53:00.439Z,7.03
2023-04-26T06:55:26.970Z,6.95
2023-04-26T06:57:53.541Z,5.18
2023-04-26T07:00:20.423Z,7.65
2023-04-26T07:02:47.045Z,7.53
2023-04-26T07:05:15.339Z,6.03
2023-04-26T07:07:42.030Z,5.82
2023-04-26T07:10:09.506Z,9.00
2023-04-26T07:12:36.035Z,5.65
2023-04-26T07:15:03.402Z,3.00
2023-04-26T07:17:29.935Z,11.43
2023-04-26T07:19:56.502Z,8.70
2023-04-26T07:22:23.578Z,6.68
2023-04-26T07:24:50.283Z,5.10
2023-04-26T07:27:17.040Z,7.10
2023-04-26T07:29:43.578Z,6.43
2023-04-26T07:32:10.164Z,5.10
2023-04-26T07:34:36.981Z,6.63
2023-04-26T07:37:03.568Z,5.90
2023-04-26T07:39:30.261Z,5.28
2023-04-26T07:41:56.769Z,9.70
2023-04-26T07:44:23.247Z,7.97
2023-04-26T07:46:49.817Z,3.88
2023-04-26T07:49:16.341Z,6.78
2023-04-26T07:51:44.556Z,3.72
2023-04-26T07:54:11.252Z,5.30
2023-04-26T07:56:37.785Z,4.88
2023-04-26T07:59:05.006Z,3.45
2023-04-26T08:01:31.641Z,6.03
2023-04-26T08:03:58.425Z,3.97
2023-04-26T08:06:25.633Z,5.37
2023-04-26T08:08:53.693Z,5.97
2023-04-26T08:11:20.635Z,5.40
2023-04-26T08:13:47.510Z,4.00
2023-04-26T08:16:14.357Z,5.30
2023-04-26T08:18:40.831Z,5.77
2023-04-26T08:21:07.895Z,5.25
2023-04-26T08:23:38.066Z,5.45
2023-04-26T08:26:04.830Z,6.13
2023-04-26T08:28:31.518Z,5.88
2023-04-26T08:30:58.293Z,4.60
2023-04-26T08:33:25.670Z,3.85
2023-04-26T08:35:52.501Z,5.32
2023-04-26T08:38:19.347Z,5.80
2023-04-26T08:40:46.870Z,4.68
2023-04-26T08:43:16.544Z,7.33
2023-04-26T08:45:46.637Z,5.22
2023-04-26T08:48:16.084Z,7.38
2023-04-26T08:50:45.568Z,3.67
2023-04-26T08:53:19.231Z,4.68
2023-04-26T08:55:49.657Z,4.67
2023-04-26T08:58:18.375Z,5.40
2023-04-26T09:00:46.272Z,5.25
2023-04-26T09:03:13.081Z,3.47
2023-04-26T09:05:44.152Z,3.05
2023-04-26T09:08:16.260Z,4.60
2023-04-26T09:10:42.965Z,5.07
2023-04-26T09:13:09.766Z,4.45
2023-04-26T09:15:36.765Z,2.75
2023-04-26T09:18:23.526Z,8.15
2023-04-26T09:21:09.204Z,3.57
2023-04-26T09:23:35.856Z,5.18
2023-04-26T09:26:21.773Z,4.00
2023-04-26T09:28:48.702Z,5.13
2023-04-26T09:31:49.473Z,4.28
2023-04-26T09:34:17.146Z,4.90
2023-04-26T09:36:52.106Z,6.40
2023-04-26T09:39:48.368Z,5.00
2023-04-26T09:42:19.078Z,4.68
2023-04-26T09:44:46.349Z,5.57
2023-04-26T09:47:12.920Z,4.00
2023-04-26T09:49:48.787Z,3.28
2023-04-26T09:52:16.802Z,6.35
2023-04-26T09:54:54.060Z,3.50
2023-04-26T09:57:23.889Z,5.18
2023-04-26T09:59:54.751Z,5.10
2023-04-26T10:02:25.379Z,4.05
2023-04-26T10:04:54.296Z,3.97
2023-04-26T10:07:23.538Z,7.55
2023-04-26T10:09:50.650Z,4.60
2023-04-26T10:12:19.474Z,4.47
2023-04-26T10:14:46.998Z,4.40
2023-04-26T10:17:14.442Z,3.45
2023-04-26T10:19:46.641Z,3.65
2023-04-26T10:22:28.946Z,3.80
2023-04-26T10:24:58.605Z,5.33
2023-04-26T10:27:43.733Z,2.60
2023-04-26T10:30:12.554Z,1.73
2023-04-26T10:32:57.693Z,6.45
2023-04-26T10:35:26.334Z,3.97
2023-04-26T10:38:02.085Z,3.20
2023-04-26T10:40:32.229Z,5.25
2023-04-26T10:43:11.838Z,4.28
2023-04-26T10:45:39.787Z,5.47
2023-04-26T10:48:18.834Z,3.50
2023-04-26T10:51:12.856Z,4.77
2023-04-26T10:53:46.437Z,4.72
2023-04-26T10:56:30.371Z,4.43
2023-04-26T11:01:52.592Z,3.15
2023-04-26T11:04:19.425Z,5.37
2023-04-26T11:06:57.920Z,3.97
2023-04-26T11:09:39.361Z,4.07
2023-04-26T11:12:08.161Z,1.98
2023-04-26T11:14:35.474Z,3.85
2023-04-26T11:17:06.436Z,4.63
2023-04-26T11:19:33.257Z,2.75
2023-04-26T11:22:00.914Z,3.28
2023-04-26T11:24:31.413Z,3.30
2023-04-26T11:26:58.234Z,6.45
2023-04-26T11:29:25.798Z,3.57
2023-04-26T11:31:57.294Z,2.80
2023-04-26T11:34:38.908Z,3.35
2023-04-26T11:37:06.754Z,3.78
2023-04-26T11:39:34.132Z,4.55
2023-04-26T11:42:11.461Z,5.43
2023-04-26T11:44:39.863Z,5.60
2023-04-26T11:47:09.951Z,4.82
2023-04-26T11:49:37.743Z,2.22
2023-04-26T11:52:05.241Z,2.88
2023-04-26T11:54:34.335Z,5.83
2023-04-26T11:57:02.876Z,2.72
2023-04-26T11:59:30.886Z,6.35
2023-04-26T12:01:57.716Z,5.50
2023-04-26T12:04:30.312Z,4.22
2023-04-26T12:06:57.940Z,3.77
2023-04-26T12:09:27.943Z,3.38
2023-04-26T12:12:02.173Z,4.18
2023-04-26T12:14:36.584Z,5.03
2023-04-26T12:17:04.598Z,5.68
2023-04-26T12:19:35.209Z,4.77
2023-04-26T12:22:01.765Z,2.72
2023-04-26T12:24:33.125Z,3.72
2023-04-26T12:27:04.262Z,4.20
2023-04-26T12:29:32.075Z,2.92
2023-04-26T12:31:59.790Z,3.23
2023-04-26T12:34:26.409Z,4.07
2023-04-26T12:36:53.088Z,5.18
2023-04-26T12:39:19.610Z,3.13
2023-04-26T12:41:49.327Z,4.60
2023-04-26T12:44:16.246Z,6.20
2023-04-26T12:46:43.047Z,5.55
2023-04-26T12:49:09.657Z,3.95
2023-04-26T12:51:36.273Z,3.28
2023-04-26T12:54:03.028Z,2.72
2023-04-26T12:56:30.007Z,3.63
2023-04-26T12:58:56.765Z,4.75
2023-04-26T13:01:23.489Z,3.53
2023-04-26T13:03:50.276Z,4.28
2023-04-26T13:06:17.026Z,7.35
2023-04-26T13:08:43.555Z,2.77
2023-04-26T13:11:10.152Z,2.90
2023-04-26T13:13:43.546Z,2.30
2023-04-26T13:16:11.945Z,6.93
2023-04-26T13:18:39.279Z,2.92
2023-04-26T13:21:06.065Z,7.37
2023-04-26T13:23:32.557Z,3.55
2023-04-26T13:25:59.087Z,3.25
2023-04-26T13:28:25.713Z,5.15
2023-04-26T13:30:52.546Z,3.60
2023-04-26T13:33:21.459Z,2.77
2023-04-26T13:35:48.497Z,3.33
2023-04-26T13:38:16.501Z,4.63
2023-04-26T13:40:44.041Z,3.80
2023-04-26T13:43:10.908Z,3.28
2023-04-26T13:45:37.452Z,1.83
2023-04-26T13:48:04.204Z,3.15
2023-04-26T13:50:31.069Z,2.97
2023-04-26T13:52:57.594Z,7.32
2023-04-26T13:55:24.345Z,7.00
2023-04-26T13:57:51.019Z,5.93
2023-04-26T14:00:18.042Z,4.05
2023-04-26T14:02:44.738Z,3.33
2023-04-26T14:05:11.684Z,3.38
2023-04-26T14:07:38.410Z,3.85
2023-04-26T14:10:05.220Z,3.13
2023-04-26T14:12:31.785Z,1.92
2023-04-26T14:14:58.459Z,2.92
2023-04-26T14:17:25.807Z,2.45
2023-04-26T14:19:54.522Z,3.00
2023-04-26T14:22:21.378Z,2.00
2023-04-26T14:24:48.082Z,3.80
2023-04-26T14:27:15.012Z,5.00
2023-04-26T14:29:41.588Z,3.58
2023-04-26T14:32:08.189Z,3.45
2023-04-26T14:34:39.152Z,3.73
2023-04-26T14:37:06.834Z,6.43
2023-04-26T14:39:33.797Z,2.60
2023-04-26T14:42:00.679Z,3.00
2023-04-26T14:44:27.794Z,2.28
2023-04-26T14:46:54.305Z,4.37
2023-04-26T14:49:21.129Z,3.90
2023-04-26T14:51:47.745Z,4.25
2023-04-26T14:54:15.338Z,6.43
2023-04-26T14:56:42.218Z,4.78
2023-04-26T14:59:08.766Z,2.07
2023-04-26T15:01:35.557Z,6.13
2023-04-26T15:04:02.405Z,4.03
2023-04-26T15:06:30.764Z,7.53
2023-04-26T15:08:57.470Z,3.30
2023-04-26T15:11:24.178Z,2.80
2023-04-26T15:13:51.155Z,3.13
2023-04-26T15:16:17.858Z,2.30
2023-04-26T15:18:46.456Z,2.60
2023-04-26T15:21:19.682Z,4.63
2023-04-26T15:23:49.122Z,4.57
2023-04-26T15:26:15.683Z,5.22
2023-04-26T15:28:42.546Z,3.40
2023-04-26T15:31:10.046Z,2.42
2023-04-26T15:33:36.819Z,5.97
2023-04-26T15:36:03.582Z,2.93
2023-04-26T15:38:30.198Z,4.40
2023-04-26T15:40:56.769Z,4.50
2023-04-26T15:43:23.401Z,4.03
2023-04-26T15:45:50.223Z,4.03
2023-04-26T15:48:16.980Z,5.83
2023-04-26T15:50:43.539Z,7.15
2023-04-26T15:53:10.171Z,7.22
2023-04-26T15:55:36.875Z,6.15
2023-04-26T15:58:03.538Z,3.80
2023-04-26T16:00:31.544Z,4.57
2023-04-26T16:02:58.262Z,4.47
2023-04-26T16:05:25.003Z,4.63
2023-04-26T16:07:51.618Z,4.28
2023-04-26T16:10:18.067Z,2.95
2023-04-26T16:12:44.968Z,2.67
2023-04-26T16:15:11.938Z,4.90
2023-04-26T16:17:39.377Z,2.40
2023-04-26T16:20:07.194Z,3.00
2023-04-26T16:22:35.012Z,3.33
2023-04-26T16:25:04.108Z,3.10
2023-04-26T16:27:30.651Z,4.10
2023-04-26T16:29:57.598Z,3.10
2023-04-26T16:32:27.500Z,5.07
2023-04-26T16:34:54.039Z,6.47
2023-04-26T16:37:20.866Z,6.77
2023-04-26T16:39:47.469Z,6.95
2023-04-26T16:42:14.084Z,5.45
2023-04-26T16:44:40.871Z,7.15
2023-04-26T16:47:07.458Z,3.10
2023-04-26T16:49:34.306Z,4.10
2023-04-26T16:52:01.194Z,6.53
2023-04-26T16:54:28.428Z,4.32
2023-04-26T16:56:54.965Z,3.60
2023-04-26T16:59:21.481Z,10.25
2023-04-26T17:01:48.107Z,4.63
2023-04-26T17:04:14.873Z,4.50
2023-04-26T17:06:41.638Z,3.40
2023-04-26T17:09:08.763Z,4.35
2023-04-26T17:11:37.363Z,5.13
2023-04-26T17:14:04.541Z,5.07
2023-04-26T17:16:31.424Z,6.72
2023-04-26T17:18:58.531Z,4.75
2023-04-26T17:21:25.527Z,3.47
2023-04-26T17:23:52.567Z,4.18
2023-04-26T17:26:19.304Z,5.20
2023-04-26T17:28:46.490Z,6.30
2023-04-26T17:31:13.085Z,6.30
2023-04-26T17:33:39.772Z,6.72
2023-04-26T17:36:06.513Z,5.55
2023-04-26T17:38:33.050Z,4.40
2023-04-26T17:40:59.786Z,7.68
2023-04-26T17:43:26.434Z,5.00
2023-04-26T17:45:53.206Z,5.82
2023-04-26T17:48:20.436Z,5.10
2023-04-26T17:50:47.149Z,4.17
2023-04-26T17:53:14.069Z,5.50
2023-04-26T17:55:40.734Z,4.95
2023-04-26T17:58:09.050Z,8.63
2023-04-26T18:00:35.661Z,6.55
2023-04-26T18:03:05.152Z,8.67
2023-04-26T18:05:31.996Z,6.88
2023-04-26T18:07:58.801Z,7.65
2023-04-26T18:10:25.826Z,7.28
2023-04-26T18:12:52.344Z,7.43
2023-04-26T18:15:19.376Z,7.63
2023-04-26T18:17:46.236Z,9.82
2023-04-26T18:20:13.344Z,5.40
2023-04-26T18:22:40.173Z,7.18
2023-04-26T18:25:07.221Z,4.50
2023-04-26T18:27:33.921Z,7.90
2023-04-26T18:30:00.750Z,5.43
2023-04-26T18:32:27.308Z,6.75
2023-04-26T18:34:53.913Z,7.82
2023-04-26T18:37:20.454Z,7.60
2023-04-26T18:39:47.056Z,5.50
2023-04-26T18:42:13.589Z,5.32
2023-04-26T18:44:40.089Z,9.10
2023-04-26T18:47:08.229Z,5.50
2023-04-26T18:49:34.729Z,6.72
2023-04-26T18:52:01.692Z,11.27
2023-04-26T18:54:28.356Z,5.60
2023-04-26T18:56:54.912Z,6.78
2023-04-26T18:59:21.666Z,7.07
2023-04-26T19:01:49.599Z,7.20
2023-04-26T19:04:16.433Z,7.57
2023-04-26T19:06:43.220Z,8.57
2023-04-26T19:09:11.769Z,6.03
2023-04-26T19:11:38.497Z,5.63
2023-04-26T19:14:05.233Z,8.57
2023-04-26T19:16:32.122Z,4.93
2023-04-26T19:18:58.905Z,6.38
2023-04-26T19:21:25.489Z,4.25
2023-04-26T19:23:52.388Z,3.92
2023-04-26T19:26:19.002Z,4.45
2023-04-26T19:28:45.538Z,8.87
2023-04-26T19:31:12.148Z,5.88
2023-04-26T19:33:40.577Z,6.80
2023-04-26T19:36:08.652Z,5.00
2023-04-26T19:38:35.348Z,5.70
2023-04-26T19:41:02.449Z,5.93
2023-04-26T19:43:29.172Z,4.60
2023-04-26T19:45:55.872Z,6.55
2023-04-26T19:48:22.361Z,3.20
2023-04-26T19:50:48.931Z,5.45
2023-04-26T19:53:15.655Z,3.33
2023-04-26T19:55:42.683Z,3.55
2023-04-26T19:58:10.874Z,5.18
2023-04-26T20:00:39.138Z,5.20
2023-04-26T20:03:06.695Z,5.63
2023-04-26T20:05:33.897Z,7.93
2023-04-26T20:08:01.763Z,7.10
2023-04-26T20:10:32.762Z,8.70
2023-04-26T20:13:00.841Z,4.93
2023-04-26T20:15:28.033Z,4.70
2023-04-26T20:17:55.109Z,8.40
2023-04-26T20:20:21.977Z,3.95
2023-04-26T20:22:48.661Z,7.82
2023-04-26T20:25:15.483Z,4.75
2023-04-26T20:27:42.073Z,7.65
2023-04-26T20:30:09.314Z,6.40
2023-04-26T20:32:36.033Z,9.13
2023-04-26T20:35:02.794Z,6.95
2023-04-26T20:37:29.538Z,7.45
2023-04-26T20:39:56.651Z,10.63
2023-04-26T20:42:24.418Z,9.57
2023-04-26T20:44:51.444Z,9.40
2023-04-26T20:47:18.307Z,9.98
2023-04-26T20:49:44.994Z,10.80
2023-04-26T20:52:11.620Z,9.48
2023-04-26T20:54:38.129Z,11.10
2023-04-26T20:57:04.683Z,9.30
2023-04-26T20:59:31.441Z,10.82
2023-04-26T21:01:58.179Z,9.68
2023-04-26T21:04:25.178Z,10.68
2023-04-26T21:06:51.924Z,10.47
2023-04-26T21:09:19.169Z,8.48
2023-04-26T21:11:45.979Z,8.48
2023-04-26T21:14:13.750Z,14.00
2023-04-26T21:16:40.636Z,15.05
2023-04-26T21:19:08.247Z,10.07
2023-04-26T21:21:35.149Z,10.27
2023-04-26T21:24:02.624Z,10.45
2023-04-26T21:26:29.719Z,10.85
2023-04-26T21:28:56.276Z,8.38
2023-04-26T21:31:22.877Z,12.60
2023-04-26T21:33:49.669Z,11.32
2023-04-26T21:36:16.398Z,8.30
2023-04-26T21:38:43.052Z,11.48
2023-04-26T21:41:09.990Z,14.10
2023-04-26T21:43:36.553Z,11.33
2023-04-26T21:46:03.438Z,8.15
2023-04-26T21:48:30.030Z,10.57
2023-04-26T21:50:57.008Z,11.73
2023-04-26T21:53:23.585Z,11.93
2023-04-26T21:55:52.569Z,19.23
2023-04-26T21:58:20.712Z,12.38
2023-04-26T22:00:48.148Z,13.23
2023-04-26T22:03:14.894Z,9.27
2023-04-26T22:05:41.926Z,11.10
2023-04-26T22:08:08.568Z,12.47
2023-04-26T22:10:35.594Z,11.32
2023-04-26T22:13:02.642Z,9.52
2023-04-26T22:15:29.309Z,8.40
2023-04-26T22:17:55.894Z,9.07
2023-04-26T22:20:22.694Z,13.67
2023-04-26T22:22:49.282Z,8.68
2023-04-26T22:25:15.888Z,9.00
2023-04-26T22:27:42.394Z,9.10
2023-04-26T22:30:16.805Z,10.38
2023-04-26T22:32:54.562Z,8.83
2023-04-26T22:35:22.095Z,12.23
2023-04-26T22:37:48.616Z,8.10
2023-04-26T22:40:16.129Z,7.53
2023-04-26T22:42:43.251Z,11.60
2023-04-26T22:45:11.127Z,8.20
2023-04-26T22:47:38.126Z,8.68
2023-04-26T22:50:06.027Z,8.35
2023-04-26T22:52:32.717Z,12.13
2023-04-26T22:55:00.007Z,12.05
2023-04-26T22:57:26.957Z,9.17
2023-04-26T22:59:53.399Z,10.80
2023-04-26T23:02:20.932Z,10.57
2023-04-26T23:04:47.680Z,10.23
2023-04-26T23:07:14.198Z,11.43
2023-04-26T23:09:41.179Z,10.63
2023-04-26T23:12:07.827Z,10.15
2023-04-26T23:14:35.087Z,9.38
2023-04-26T23:17:02.884Z,9.73
2023-04-26T23:19:29.546Z,10.55
2023-04-26T23:21:56.391Z,9.57
2023-04-26T23:24:22.919Z,9.90
2023-04-26T23:26:49.588Z,13.45
2023-04-26T23:29:16.159Z,8.65
2023-04-26T23:31:43.017Z,11.38
2023-04-26T23:34:09.606Z,9.33
2023-04-26T23:36:36.261Z,11.30
2023-04-26T23:39:03.016Z,8.55
2023-04-26T23:41:29.564Z,10.77
2023-04-26T23:43:56.131Z,9.40
2023-04-26T23:46:22.860Z,15.10
2023-04-26T23:48:49.409Z,6.45
2023-04-26T23:51:16.275Z,10.65
2023-04-26T23:53:43.912Z,11.48
2023-04-26T23:56:10.600Z,10.25
2023-04-26T23:58:37.169Z,10.57
